sensor_id;sensor_type;location;lat;lon;timestamp;pressure;altitude;pressure_sealevel;temperature;humidity
34931;BME280;21134;49.646;8.560;2023-06-10T00:01:17;100077.91;;;19.85;62.78
34931;BME280;21134;49.646;8.560;2023-06-10T00:03:44;100093.06;;;19.94;61.83
34931;BME280;21134;49.646;8.560;2023-06-10T00:06:10;100084.34;;;20.14;60.34
34931;BME280;21134;49.646;8.560;2023-06-10T00:08:37;100081.56;;;20.36;58.08
34931;BME280;21134;49.646;8.560;2023-06-10T00:11:06;100083.41;;;20.88;54.00
34931;BME280;21134;49.646;8.560;2023-06-10T00:13:32;100090.81;;;21.13;54.13
34931;BME280;21134;49.646;8.560;2023-06-10T00:15:59;100080.44;;;21.29;53.94
34931;BME280;21134;49.646;8.560;2023-06-10T00:18:25;100068.81;;;21.36;53.20
34931;BME280;21134;49.646;8.560;2023-06-10T00:20:56;100075.22;;;21.46;52.94
34931;BME280;21134;49.646;8.560;2023-06-10T00:23:28;100091.53;;;21.66;52.21
34931;BME280;21134;49.646;8.560;2023-06-10T00:25:56;100075.69;;;21.70;52.23
34931;BME280;21134;49.646;8.560;2023-06-10T00:28:24;100078.94;;;21.58;52.98
34931;BME280;21134;49.646;8.560;2023-06-10T00:30:50;100078.38;;;21.85;51.49
34931;BME280;21134;49.646;8.560;2023-06-10T00:33:16;100087.63;;;21.90;51.29
34931;BME280;21134;49.646;8.560;2023-06-10T00:35:43;100083.69;;;21.83;52.13
34931;BME280;21134;49.646;8.560;2023-06-10T00:38:09;100084.50;;;21.83;52.40
34931;BME280;21134;49.646;8.560;2023-06-10T00:40:38;100085.63;;;21.79;52.93
34931;BME280;21134;49.646;8.560;2023-06-10T00:43:05;100078.13;;;21.73;52.92
34931;BME280;21134;49.646;8.560;2023-06-10T00:45:33;100082.22;;;21.62;53.41
34931;BME280;21134;49.646;8.560;2023-06-10T00:48:00;100085.16;;;21.55;53.91
34931;BME280;21134;49.646;8.560;2023-06-10T00:50:27;100085.63;;;21.46;53.86
34931;BME280;21134;49.646;8.560;2023-06-10T00:52:54;100088.94;;;21.32;54.64
34931;BME280;21134;49.646;8.560;2023-06-10T00:55:21;100085.56;;;21.30;54.31
34931;BME280;21134;49.646;8.560;2023-06-10T00:57:48;100090.59;;;21.33;54.09
34931;BME280;21134;49.646;8.560;2023-06-10T01:00:15;100088.31;;;21.27;54.56
34931;BME280;21134;49.646;8.560;2023-06-10T01:02:43;100088.31;;;21.27;54.54
34931;BME280;21134;49.646;8.560;2023-06-10T01:05:10;100085.56;;;21.30;54.33
34931;BME280;21134;49.646;8.560;2023-06-10T01:07:40;100087.47;;;21.27;54.34
34931;BME280;21134;49.646;8.560;2023-06-10T01:10:15;100092.06;;;21.22;54.45
34931;BME280;21134;49.646;8.560;2023-06-10T01:12:45;100087.06;;;21.19;54.31
34931;BME280;21134;49.646;8.560;2023-06-10T01:15:14;100091.69;;;21.12;54.81
34931;BME280;21134;49.646;8.560;2023-06-10T01:17:55;100091.63;;;21.13;54.97
34931;BME280;21134;49.646;8.560;2023-06-10T01:20:22;100091.34;;;21.02;55.52
34931;BME280;21134;49.646;8.560;2023-06-10T01:22:50;100094.56;;;20.90;56.57
34931;BME280;21134;49.646;8.560;2023-06-10T01:25:19;100090.97;;;20.75;57.00
34931;BME280;21134;49.646;8.560;2023-06-10T01:27:53;100095.09;;;20.62;57.23
34931;BME280;21134;49.646;8.560;2023-06-10T01:30:22;100091.28;;;20.50;57.65
34931;BME280;21134;49.646;8.560;2023-06-10T01:32:55;100091.00;;;20.39;58.14
34931;BME280;21134;49.646;8.560;2023-06-10T01:35:25;100087.13;;;20.29;58.81
34931;BME280;21134;49.646;8.560;2023-06-10T01:37:54;100088.47;;;20.18;59.42
34931;BME280;21134;49.646;8.560;2023-06-10T01:40:23;100093.50;;;20.04;60.08
34931;BME280;21134;49.646;8.560;2023-06-10T01:42:51;100093.22;;;19.91;60.48
34931;BME280;21134;49.646;8.560;2023-06-10T01:45:18;100094.75;;;19.77;61.05
34931;BME280;21134;49.646;8.560;2023-06-10T01:47:44;100090.88;;;19.66;61.35
34931;BME280;21134;49.646;8.560;2023-06-10T01:50:11;100097.50;;;19.53;62.08
34931;BME280;21134;49.646;8.560;2023-06-10T01:52:38;100101.53;;;19.40;62.09
34931;BME280;21134;49.646;8.560;2023-06-10T01:55:06;100096.78;;;19.31;62.57
34931;BME280;21134;49.646;8.560;2023-06-10T01:57:33;100089.66;;;19.15;63.54
34931;BME280;21134;49.646;8.560;2023-06-10T01:59:59;100096.19;;;19.03;63.71
34931;BME280;21134;49.646;8.560;2023-06-10T02:02:26;100099.88;;;18.98;63.93
34931;BME280;21134;49.646;8.560;2023-06-10T02:04:52;100094.91;;;18.93;63.96
34931;BME280;21134;49.646;8.560;2023-06-10T02:07:18;100101.00;;;18.92;64.29
34931;BME280;21134;49.646;8.560;2023-06-10T02:09:45;100090.88;;;18.86;64.55
34931;BME280;21134;49.646;8.560;2023-06-10T02:12:13;100095.53;;;18.78;64.77
34931;BME280;21134;49.646;8.560;2023-06-10T02:14:40;100108.22;;;18.62;65.33
34931;BME280;21134;49.646;8.560;2023-06-10T02:17:06;100106.69;;;18.58;65.55
34931;BME280;21134;49.646;8.560;2023-06-10T02:19:33;100101.75;;;18.52;65.78
34931;BME280;21134;49.646;8.560;2023-06-10T02:22:01;100108.19;;;18.42;66.17
34931;BME280;21134;49.646;8.560;2023-06-10T02:24:28;100098.13;;;18.34;66.13
34931;BME280;21134;49.646;8.560;2023-06-10T02:26:54;100106.00;;;18.31;66.68
34931;BME280;21134;49.646;8.560;2023-06-10T02:29:23;100103.63;;;18.26;67.02
34931;BME280;21134;49.646;8.560;2023-06-10T02:31:50;100103.78;;;18.22;67.33
34931;BME280;21134;49.646;8.560;2023-06-10T02:34:18;100110.06;;;18.16;67.97
34931;BME280;21134;49.646;8.560;2023-06-10T02:36:45;100113.84;;;18.07;67.87
34931;BME280;21134;49.646;8.560;2023-06-10T02:39:11;100115.75;;;18.02;67.94
34931;BME280;21134;49.646;8.560;2023-06-10T02:41:38;100109.31;;;17.91;68.74
34931;BME280;21134;49.646;8.560;2023-06-10T02:44:04;100117.28;;;17.84;68.48
34931;BME280;21134;49.646;8.560;2023-06-10T02:46:32;100117.41;;;17.81;68.72
34931;BME280;21134;49.646;8.560;2023-06-10T02:48:59;100122.91;;;17.71;69.01
34931;BME280;21134;49.646;8.560;2023-06-10T02:51:26;100112.81;;;17.64;69.09
34931;BME280;21134;49.646;8.560;2023-06-10T02:53:53;100112.25;;;17.56;69.73
34931;BME280;21134;49.646;8.560;2023-06-10T02:56:19;100115.00;;;17.52;69.85
34931;BME280;21134;49.646;8.560;2023-06-10T02:58:47;100117.75;;;17.47;70.75
34931;BME280;21134;49.646;8.560;2023-06-10T03:01:13;100118.69;;;17.44;70.93
34931;BME280;21134;49.646;8.560;2023-06-10T03:03:41;100115.53;;;17.36;70.71
34931;BME280;21134;49.646;8.560;2023-06-10T03:06:09;100120.72;;;17.36;71.52
34931;BME280;21134;49.646;8.560;2023-06-10T03:08:36;100124.25;;;17.34;71.40
34931;BME280;21134;49.646;8.560;2023-06-10T03:11:02;100119.44;;;17.23;71.86
34931;BME280;21134;49.646;8.560;2023-06-10T03:13:29;100121.34;;;17.18;72.23
34931;BME280;21134;49.646;8.560;2023-06-10T03:15:55;100119.97;;;17.08;72.53
34931;BME280;21134;49.646;8.560;2023-06-10T03:18:26;100119.25;;;17.03;72.75
34931;BME280;21134;49.646;8.560;2023-06-10T03:20:54;100120.47;;;16.92;72.87
34931;BME280;21134;49.646;8.560;2023-06-10T03:23:21;100125.84;;;16.86;73.23
34931;BME280;21134;49.646;8.560;2023-06-10T03:25:48;100126.66;;;16.88;73.21
34931;BME280;21134;49.646;8.560;2023-06-10T03:28:14;100124.00;;;16.90;73.06
34931;BME280;21134;49.646;8.560;2023-06-10T03:30:41;100127.53;;;16.87;73.74
34931;BME280;21134;49.646;8.560;2023-06-10T03:33:07;100130.31;;;16.81;73.50
34931;BME280;21134;49.646;8.560;2023-06-10T03:35:34;100129.91;;;16.65;74.03
34931;BME280;21134;49.646;8.560;2023-06-10T03:38:02;100128.41;;;16.60;74.41
34931;BME280;21134;49.646;8.560;2023-06-10T03:40:29;100136.47;;;16.49;75.24
34931;BME280;21134;49.646;8.560;2023-06-10T03:42:57;100131.38;;;16.46;74.94
34931;BME280;21134;49.646;8.560;2023-06-10T03:45:23;100130.72;;;16.41;75.92
34931;BME280;21134;49.646;8.560;2023-06-10T03:47:50;100136.56;;;16.46;75.60
34931;BME280;21134;49.646;8.560;2023-06-10T03:50:17;100139.94;;;16.48;76.01
34931;BME280;21134;49.646;8.560;2023-06-10T03:52:43;100139.88;;;16.49;75.86
34931;BME280;21134;49.646;8.560;2023-06-10T03:55:12;100139.31;;;16.40;76.40
34931;BME280;21134;49.646;8.560;2023-06-10T03:57:38;100145.19;;;16.46;76.51
34931;BME280;21134;49.646;8.560;2023-06-10T04:00:06;100142.34;;;16.54;76.40
34931;BME280;21134;49.646;8.560;2023-06-10T04:02:36;100138.63;;;16.63;76.20
34931;BME280;21134;49.646;8.560;2023-06-10T04:05:02;100138.56;;;16.64;76.27
34931;BME280;21134;49.646;8.560;2023-06-10T04:07:29;100135.16;;;16.64;75.99
34931;BME280;21134;49.646;8.560;2023-06-10T04:09:57;100138.63;;;16.63;76.63
34931;BME280;21134;49.646;8.560;2023-06-10T04:12:25;100140.47;;;16.59;76.55
34931;BME280;21134;49.646;8.560;2023-06-10T04:14:52;100143.63;;;16.69;76.19
34931;BME280;21134;49.646;8.560;2023-06-10T04:17:18;100136.63;;;16.71;76.54
34931;BME280;21134;49.646;8.560;2023-06-10T04:19:44;100144.28;;;16.76;76.59
34931;BME280;21134;49.646;8.560;2023-06-10T04:22:11;100149.47;;;16.76;76.83
34931;BME280;21134;49.646;8.560;2023-06-10T04:24:38;100154.34;;;16.85;76.51
34931;BME280;21134;49.646;8.560;2023-06-10T04:27:05;100154.22;;;16.88;76.11
34931;BME280;21134;49.646;8.560;2023-06-10T04:29:33;100150.69;;;16.90;75.90
34931;BME280;21134;49.646;8.560;2023-06-10T04:31:59;100156.78;;;16.88;76.34
34931;BME280;21134;49.646;8.560;2023-06-10T04:34:27;100161.72;;;16.95;76.17
34931;BME280;21134;49.646;8.560;2023-06-10T04:36:53;100163.19;;;17.04;76.34
34931;BME280;21134;49.646;8.560;2023-06-10T04:39:20;100158.69;;;17.09;76.17
34931;BME280;21134;49.646;8.560;2023-06-10T04:41:46;100156.72;;;17.16;75.87
34931;BME280;21134;49.646;8.560;2023-06-10T04:44:13;100163.16;;;17.29;75.50
34931;BME280;21134;49.646;8.560;2023-06-10T04:46:41;100163.84;;;17.36;75.22
34931;BME280;21134;49.646;8.560;2023-06-10T04:49:07;100155.97;;;17.39;74.38
34931;BME280;21134;49.646;8.560;2023-06-10T04:51:34;100161.91;;;17.41;74.68
34931;BME280;21134;49.646;8.560;2023-06-10T04:54:01;100159.22;;;17.44;75.01
34931;BME280;21134;49.646;8.560;2023-06-10T04:56:28;100160.75;;;17.50;74.61
34931;BME280;21134;49.646;8.560;2023-06-10T04:58:55;100160.47;;;17.57;74.46
34931;BME280;21134;49.646;8.560;2023-06-10T05:01:21;100162.53;;;17.73;73.79
34931;BME280;21134;49.646;8.560;2023-06-10T05:03:49;100161.50;;;17.78;73.51
34931;BME280;21134;49.646;8.560;2023-06-10T05:06:16;100166.56;;;17.81;73.11
34931;BME280;21134;49.646;8.560;2023-06-10T05:08:42;100167.34;;;17.83;73.47
34931;BME280;21134;49.646;8.560;2023-06-10T05:11:09;100170.44;;;17.93;72.87
34931;BME280;21134;49.646;8.560;2023-06-10T05:13:35;100170.69;;;18.10;72.06
34931;BME280;21134;49.646;8.560;2023-06-10T05:16:02;100172.81;;;18.23;71.44
34931;BME280;21134;49.646;8.560;2023-06-10T05:18:28;100164.09;;;18.25;71.53
34931;BME280;21134;49.646;8.560;2023-06-10T05:20:57;100171.09;;;18.45;70.66
34931;BME280;21134;49.646;8.560;2023-06-10T05:23:24;100171.94;;;18.46;70.92
34931;BME280;21134;49.646;8.560;2023-06-10T05:25:50;100175.84;;;18.56;70.02
34931;BME280;21134;49.646;8.560;2023-06-10T05:28:17;100167.72;;;18.65;70.00
34931;BME280;21134;49.646;8.560;2023-06-10T05:31:51;100172.72;;;18.70;69.68
34931;BME280;21134;49.646;8.560;2023-06-10T05:34:17;100182.56;;;18.84;69.16
34931;BME280;21134;49.646;8.560;2023-06-10T05:36:44;100175.97;;;18.97;68.20
34931;BME280;21134;49.646;8.560;2023-06-10T05:39:10;100182.69;;;19.02;68.39
34931;BME280;21134;49.646;8.560;2023-06-10T05:41:37;100183.78;;;19.17;67.86
34931;BME280;21134;49.646;8.560;2023-06-10T05:44:03;100177.78;;;19.37;67.02
34931;BME280;21134;49.646;8.560;2023-06-10T05:46:30;100185.22;;;19.45;67.43
34931;BME280;21134;49.646;8.560;2023-06-10T05:48:58;100175.88;;;19.61;66.58
34931;BME280;21134;49.646;8.560;2023-06-10T05:51:25;100179.06;;;19.68;66.10
34931;BME280;21134;49.646;8.560;2023-06-10T05:53:52;100180.16;;;19.83;65.70
34931;BME280;21134;49.646;8.560;2023-06-10T05:56:19;100181.56;;;19.90;65.24
34931;BME280;21134;49.646;8.560;2023-06-10T05:58:45;100184.66;;;19.98;65.21
34931;BME280;21134;49.646;8.560;2023-06-10T06:01:12;100189.03;;;19.97;65.30
34931;BME280;21134;49.646;8.560;2023-06-10T06:03:38;100189.72;;;20.01;65.90
34931;BME280;21134;49.646;8.560;2023-06-10T06:06:06;100182.22;;;20.14;64.66
34931;BME280;21134;49.646;8.560;2023-06-10T06:08:33;100190.44;;;20.24;65.08
34931;BME280;21134;49.646;8.560;2023-06-10T06:10:59;100187.34;;;20.34;65.19
34931;BME280;21134;49.646;8.560;2023-06-10T06:13:26;100178.72;;;20.53;63.50
34931;BME280;21134;49.646;8.560;2023-06-10T06:15:52;100193.19;;;20.58;64.66
34931;BME280;21134;49.646;8.560;2023-06-10T06:18:19;100189.94;;;20.72;64.00
34931;BME280;21134;49.646;8.560;2023-06-10T06:20:45;100181.84;;;20.78;64.26
34931;BME280;21134;49.646;8.560;2023-06-10T06:23:13;100185.59;;;20.90;62.97
34931;BME280;21134;49.646;8.560;2023-06-10T06:25:40;100189.50;;;20.99;63.29
34931;BME280;21134;49.646;8.560;2023-06-10T06:28:07;100186.28;;;21.11;62.61
34931;BME280;21134;49.646;8.560;2023-06-10T06:30:34;100177.66;;;21.10;62.62
34931;BME280;21134;49.646;8.560;2023-06-10T06:33:00;100184.59;;;21.27;63.12
34931;BME280;21134;49.646;8.560;2023-06-10T06:35:27;100190.22;;;21.37;63.30
34931;BME280;21134;49.646;8.560;2023-06-10T06:37:53;100182.94;;;21.44;63.06
34931;BME280;21134;49.646;8.560;2023-06-10T06:40:21;100188.50;;;21.53;62.72
34931;BME280;21134;49.646;8.560;2023-06-10T06:42:48;100195.69;;;21.66;62.21
34931;BME280;21134;49.646;8.560;2023-06-10T06:45:14;100193.25;;;21.80;61.68
34931;BME280;21134;49.646;8.560;2023-06-10T06:47:41;100189.81;;;21.95;61.94
34931;BME280;21134;49.646;8.560;2023-06-10T06:50:09;100204.72;;;22.09;61.59
34931;BME280;21134;49.646;8.560;2023-06-10T06:52:35;100200.06;;;22.32;60.31
34931;BME280;21134;49.646;8.560;2023-06-10T06:55:02;100198.06;;;22.37;59.52
34931;BME280;21134;49.646;8.560;2023-06-10T06:59:56;100207.53;;;22.69;58.89
34931;BME280;21134;49.646;8.560;2023-06-10T07:02:22;100197.81;;;22.87;57.85
34931;BME280;21134;49.646;8.560;2023-06-10T07:04:49;100207.25;;;23.06;56.53
34931;BME280;21134;49.646;8.560;2023-06-10T07:07:16;100206.66;;;23.31;56.43
34931;BME280;21134;49.646;8.560;2023-06-10T07:09:42;100205.66;;;23.33;55.69
34931;BME280;21134;49.646;8.560;2023-06-10T07:12:09;100205.03;;;23.58;54.41
34931;BME280;21134;49.646;8.560;2023-06-10T07:14:37;100196.28;;;23.74;54.09
34931;BME280;21134;49.646;8.560;2023-06-10T07:17:04;100203.31;;;23.87;53.06
34931;BME280;21134;49.646;8.560;2023-06-10T07:19:30;100211.06;;;24.03;53.78
34931;BME280;21134;49.646;8.560;2023-06-10T07:21:57;100214.59;;;24.17;52.71
34931;BME280;21134;49.646;8.560;2023-06-10T07:24:23;100205.78;;;24.32;52.58
34931;BME280;21134;49.646;8.560;2023-06-10T07:26:50;100210.50;;;24.41;51.68
34931;BME280;21134;49.646;8.560;2023-06-10T07:29:16;100212.47;;;24.65;51.64
34931;BME280;21134;49.646;8.560;2023-06-10T07:31:44;100213.16;;;24.81;51.54
34931;BME280;21134;49.646;8.560;2023-06-10T07:34:11;100211.91;;;24.87;51.27
34931;BME280;21134;49.646;8.560;2023-06-10T07:36:37;100200.03;;;24.95;51.13
34931;BME280;21134;49.646;8.560;2023-06-10T07:39:04;100198.75;;;25.01;52.48
34931;BME280;21134;49.646;8.560;2023-06-10T07:41:31;100201.44;;;25.14;51.37
34931;BME280;21134;49.646;8.560;2023-06-10T07:43:57;100209.66;;;25.35;51.56
34931;BME280;21134;49.646;8.560;2023-06-10T07:46:24;100201.28;;;25.55;50.09
34931;BME280;21134;49.646;8.560;2023-06-10T07:48:54;100200.34;;;25.56;49.92
34931;BME280;21134;49.646;8.560;2023-06-10T07:51:21;100206.94;;;25.87;48.68
34931;BME280;21134;49.646;8.560;2023-06-10T07:53:47;100200.63;;;26.03;48.89
34931;BME280;21134;49.646;8.560;2023-06-10T07:56:13;100204.06;;;26.16;49.04
34931;BME280;21134;49.646;8.560;2023-06-10T07:58:40;100202.28;;;26.29;48.06
34931;BME280;21134;49.646;8.560;2023-06-10T08:01:06;100200.38;;;26.31;48.23
34931;BME280;21134;49.646;8.560;2023-06-10T08:03:34;100205.16;;;26.50;46.86
34931;BME280;21134;49.646;8.560;2023-06-10T08:06:02;100198.03;;;26.52;46.90
34931;BME280;21134;49.646;8.560;2023-06-10T08:08:28;100205.19;;;26.74;46.21
34931;BME280;21134;49.646;8.560;2023-06-10T08:10:55;100208.41;;;26.54;46.26
34931;BME280;21134;49.646;8.560;2023-06-10T08:13:21;100209.72;;;26.23;47.14
34931;BME280;21134;49.646;8.560;2023-06-10T08:15:48;100204.13;;;26.40;46.48
34931;BME280;21134;49.646;8.560;2023-06-10T08:18:15;100199.28;;;26.47;45.92
34931;BME280;21134;49.646;8.560;2023-06-10T08:20:42;100206.47;;;26.69;45.97
34931;BME280;21134;49.646;8.560;2023-06-10T08:23:10;100201.81;;;26.72;46.70
34931;BME280;21134;49.646;8.560;2023-06-10T08:25:36;100209.91;;;26.93;45.75
34931;BME280;21134;49.646;8.560;2023-06-10T08:28:03;100200.63;;;27.00;44.56
34931;BME280;21134;49.646;8.560;2023-06-10T08:30:29;100196.44;;;26.98;45.54
34931;BME280;21134;49.646;8.560;2023-06-10T08:32:56;100202.28;;;27.01;46.15
34931;BME280;21134;49.646;8.560;2023-06-10T08:35:22;100196.72;;;27.06;45.44
34931;BME280;21134;49.646;8.560;2023-06-10T08:37:49;100201.56;;;27.23;46.17
34931;BME280;21134;49.646;8.560;2023-06-10T08:40:17;100202.31;;;27.36;45.74
34931;BME280;21134;49.646;8.560;2023-06-10T08:42:48;100199.09;;;27.44;45.04
34931;BME280;21134;49.646;8.560;2023-06-10T08:45:17;100191.56;;;27.40;45.97
34931;BME280;21134;49.646;8.560;2023-06-10T08:47:45;100192.53;;;27.50;45.45
34931;BME280;21134;49.646;8.560;2023-06-10T08:50:12;100199.94;;;27.45;45.16
34931;BME280;21134;49.646;8.560;2023-06-10T08:52:43;100190.50;;;27.53;45.68
34931;BME280;21134;49.646;8.560;2023-06-10T08:55:12;100191.38;;;27.88;42.51
34931;BME280;21134;49.646;8.560;2023-06-10T08:57:42;100180.88;;;27.88;42.65
34931;BME280;21134;49.646;8.560;2023-06-10T09:00:10;100183.50;;;27.99;43.05
34931;BME280;21134;49.646;8.560;2023-06-10T09:02:38;100187.19;;;27.96;42.86
34931;BME280;21134;49.646;8.560;2023-06-10T09:05:05;100181.03;;;28.29;42.26
34931;BME280;21134;49.646;8.560;2023-06-10T09:07:31;100182.53;;;28.66;41.07
34931;BME280;21134;49.646;8.560;2023-06-10T09:10:00;100180.09;;;28.74;40.61
34931;BME280;21134;49.646;8.560;2023-06-10T09:12:29;100184.19;;;28.78;40.46
34931;BME280;21134;49.646;8.560;2023-06-10T09:14:57;100176.47;;;28.86;40.52
34931;BME280;21134;49.646;8.560;2023-06-10T09:17:23;100179.03;;;28.77;40.27
34931;BME280;21134;49.646;8.560;2023-06-10T09:19:50;100170.38;;;28.86;40.38
34931;BME280;21134;49.646;8.560;2023-06-10T09:22:19;100167.69;;;29.18;39.71
34931;BME280;21134;49.646;8.560;2023-06-10T09:24:46;100176.50;;;29.28;39.42
34931;BME280;21134;49.646;8.560;2023-06-10T09:27:13;100176.28;;;29.41;39.29
34931;BME280;21134;49.646;8.560;2023-06-10T09:29:46;100168.34;;;29.31;38.40
34931;BME280;21134;49.646;8.560;2023-06-10T09:32:17;100173.22;;;29.36;38.72
34931;BME280;21134;49.646;8.560;2023-06-10T09:34:44;100172.63;;;29.53;37.74
34931;BME280;21134;49.646;8.560;2023-06-10T09:37:11;100174.38;;;29.43;38.52
34931;BME280;21134;49.646;8.560;2023-06-10T09:39:39;100167.16;;;29.45;38.52
34931;BME280;21134;49.646;8.560;2023-06-10T09:42:15;100173.31;;;29.55;38.55
34931;BME280;21134;49.646;8.560;2023-06-10T09:44:42;100174.38;;;29.74;38.00
34931;BME280;21134;49.646;8.560;2023-06-10T09:47:21;100174.97;;;29.77;37.97
34931;BME280;21134;49.646;8.560;2023-06-10T09:49:47;100178.78;;;29.63;39.48
34931;BME280;21134;49.646;8.560;2023-06-10T09:52:21;100169.97;;;29.74;38.43
34931;BME280;21134;49.646;8.560;2023-06-10T09:54:47;100175.25;;;29.74;38.18
34931;BME280;21134;49.646;8.560;2023-06-10T09:57:14;100167.72;;;29.70;38.37
34931;BME280;21134;49.646;8.560;2023-06-10T09:59:42;100167.41;;;29.63;37.98
34931;BME280;21134;49.646;8.560;2023-06-10T10:02:14;100167.16;;;29.66;36.67
34931;BME280;21134;49.646;8.560;2023-06-10T10:04:42;100164.41;;;29.68;36.77
34931;BME280;21134;49.646;8.560;2023-06-10T10:07:08;100155.81;;;29.75;36.27
34931;BME280;21134;49.646;8.560;2023-06-10T10:09:35;100156.56;;;29.87;36.47
34931;BME280;21134;49.646;8.560;2023-06-10T10:12:02;100156.31;;;30.00;34.77
34931;BME280;21134;49.646;8.560;2023-06-10T10:14:31;100160.03;;;29.97;35.06
34931;BME280;21134;49.646;8.560;2023-06-10T10:16:59;100154.50;;;30.00;36.19
34931;BME280;21134;49.646;8.560;2023-06-10T10:19:30;100156.41;;;30.29;34.66
34931;BME280;21134;49.646;8.560;2023-06-10T10:22:01;100153.75;;;30.39;34.68
34931;BME280;21134;49.646;8.560;2023-06-10T10:24:33;100156.53;;;30.56;34.52
34931;BME280;21134;49.646;8.560;2023-06-10T10:27:01;100158.50;;;30.74;34.15
34931;BME280;21134;49.646;8.560;2023-06-10T10:29:31;100151.00;;;30.79;34.46
34931;BME280;21134;49.646;8.560;2023-06-10T10:31:59;100150.72;;;30.92;32.89
34931;BME280;21134;49.646;8.560;2023-06-10T10:34:30;100147.09;;;30.64;33.84
34931;BME280;21134;49.646;8.560;2023-06-10T10:37:01;100147.38;;;30.61;33.81
34931;BME280;21134;49.646;8.560;2023-06-10T10:39:28;100145.03;;;30.67;33.96
34931;BME280;21134;49.646;8.560;2023-06-10T10:41:56;100157.25;;;30.58;32.95
34931;BME280;21134;49.646;8.560;2023-06-10T10:44:23;100151.84;;;30.60;32.98
34931;BME280;21134;49.646;8.560;2023-06-10T10:46:51;100149.59;;;30.65;33.10
34931;BME280;21134;49.646;8.560;2023-06-10T10:49:20;100142.78;;;30.72;33.80
34931;BME280;21134;49.646;8.560;2023-06-10T10:51:55;100142.78;;;30.82;33.39
34931;BME280;21134;49.646;8.560;2023-06-10T10:54:29;100139.84;;;31.04;33.64
34931;BME280;21134;49.646;8.560;2023-06-10T10:57:13;100144.56;;;31.11;34.66
34931;BME280;21134;49.646;8.560;2023-06-10T10:59:51;100145.22;;;31.22;33.70
34931;BME280;21134;49.646;8.560;2023-06-10T11:02:32;100130.34;;;31.31;33.66
34931;BME280;21134;49.646;8.560;2023-06-10T11:05:01;100132.63;;;31.54;33.36
34931;BME280;21134;49.646;8.560;2023-06-10T11:07:29;100131.66;;;31.55;32.97
34931;BME280;21134;49.646;8.560;2023-06-10T11:09:59;100138.63;;;31.46;32.43
34931;BME280;21134;49.646;8.560;2023-06-10T11:12:26;100131.59;;;31.37;32.92
34931;BME280;21134;49.646;8.560;2023-06-10T11:14:56;100127.81;;;31.30;33.25
34931;BME280;21134;49.646;8.560;2023-06-10T11:17:22;100130.91;;;31.35;33.49
34931;BME280;21134;49.646;8.560;2023-06-10T11:19:49;100139.09;;;31.41;33.88
34931;BME280;21134;49.646;8.560;2023-06-10T11:22:16;100131.53;;;31.56;33.72
34931;BME280;21134;49.646;8.560;2023-06-10T11:24:47;100116.28;;;31.68;32.75
34931;BME280;21134;49.646;8.560;2023-06-10T11:27:19;100114.72;;;31.75;32.38
34931;BME280;21134;49.646;8.560;2023-06-10T11:29:58;100110.75;;;31.61;32.48
34931;BME280;21134;49.646;8.560;2023-06-10T11:32:43;100125.44;;;31.36;32.72
34931;BME280;21134;49.646;8.560;2023-06-10T11:35:10;100119.31;;;30.79;33.50
34931;BME280;21134;49.646;8.560;2023-06-10T11:37:37;100115.41;;;30.54;33.38
34931;BME280;21134;49.646;8.560;2023-06-10T11:40:07;100122.91;;;30.97;33.50
34931;BME280;21134;49.646;8.560;2023-06-10T11:42:40;100113.41;;;31.04;33.26
34931;BME280;21134;49.646;8.560;2023-06-10T11:45:07;100114.13;;;30.97;33.61
34931;BME280;21134;49.646;8.560;2023-06-10T11:47:34;100107.72;;;31.09;33.15
34931;BME280;21134;49.646;8.560;2023-06-10T11:50:01;100114.84;;;30.99;33.18
34931;BME280;21134;49.646;8.560;2023-06-10T11:52:28;100107.31;;;30.94;33.66
34931;BME280;21134;49.646;8.560;2023-06-10T11:54:57;100095.78;;;30.76;34.13
34931;BME280;21134;49.646;8.560;2023-06-10T11:57:23;100107.91;;;30.78;33.67
34931;BME280;21134;49.646;8.560;2023-06-10T11:59:51;100107.06;;;30.78;33.20
34931;BME280;21134;49.646;8.560;2023-06-10T12:02:18;100106.78;;;30.71;33.17
34931;BME280;21134;49.646;8.560;2023-06-10T12:04:45;100101.94;;;30.86;33.23
34931;BME280;21134;49.646;8.560;2023-06-10T12:07:17;100101.69;;;31.17;33.55
34931;BME280;21134;49.646;8.560;2023-06-10T12:09:44;100107.66;;;31.66;32.51
34931;BME280;21134;49.646;8.560;2023-06-10T12:12:10;100097.47;;;31.99;30.40
34931;BME280;21134;49.646;8.560;2023-06-10T12:14:53;100098.84;;;32.21;31.12
34931;BME280;21134;49.646;8.560;2023-06-10T12:17:20;100099.44;;;32.32;31.83
34931;BME280;21134;49.646;8.560;2023-06-10T12:19:48;100096.38;;;32.55;30.29
34931;BME280;21134;49.646;8.560;2023-06-10T12:22:14;100098.38;;;32.61;30.18
34931;BME280;21134;49.646;8.560;2023-06-10T12:24:45;100096.66;;;32.96;30.39
34931;BME280;21134;49.646;8.560;2023-06-10T12:27:11;100093.19;;;33.21;28.79
34931;BME280;21134;49.646;8.560;2023-06-10T12:29:38;100092.09;;;33.32;29.26
34931;BME280;21134;49.646;8.560;2023-06-10T12:32:07;100094.56;;;33.33;29.54
34931;BME280;21134;49.646;8.560;2023-06-10T12:34:35;100094.44;;;33.35;28.63
34931;BME280;21134;49.646;8.560;2023-06-10T12:37:04;100085.66;;;33.34;28.42
34931;BME280;21134;49.646;8.560;2023-06-10T12:39:32;100092.53;;;33.19;30.21
34931;BME280;21134;49.646;8.560;2023-06-10T12:41:59;100095.19;;;33.19;30.03
34931;BME280;21134;49.646;8.560;2023-06-10T12:44:30;100087.97;;;33.03;30.28
34931;BME280;21134;49.646;8.560;2023-06-10T12:46:56;100094.50;;;33.17;29.64
34931;BME280;21134;49.646;8.560;2023-06-10T12:49:25;100088.63;;;33.31;29.53
34931;BME280;21134;49.646;8.560;2023-06-10T12:51:52;100092.53;;;33.53;29.82
34931;BME280;21134;49.646;8.560;2023-06-10T12:54:18;100086.16;;;33.80;28.72
34931;BME280;21134;49.646;8.560;2023-06-10T12:56:45;100097.41;;;33.74;29.26